Foster, Oklahoma
Current Conditions -  °F | °C
As of 9:55 AM on Sunday 21 Dec 2014 (Local Time) from KPVJ Reporting Station
Overcast Overcast  
Wind Chill: 41°   Ceiling: 1200
Heat Index: 46°   Visibility: 7mi
Dew Point: 43°   Wind: 8mph
Humidity: 89%   Direction: 160°SSE
Pressure: 30.01"   Gusts: NA
Location:  34.62°N, 97.49°W
Report Text: KPVJ 211555Z AUTO 16007KT 130V190 7SM OVC012 08/06 A3001 RMK AO2 T00760059
Loading
Personal Weather Stations






























Interactive Weather Map New forecast layout! Learn more

10-Day Weather Forecast

Advertisements
Track Severe Weather on mobile